Time;durP1;ratioP1;P1;durP2;ratioP2;P2;SDS_P1;SDS_P2;PMS_P1;PMS_P2;Temp;Humidity;BMP_temperature;BMP_pressure;BME280_temperature;BME280_humidity;BME280_pressure;Samples;Min_cycle;Max_cycle;Signal;HPM_P1;HPM_P2
2021/07/05 00:02:36;;;;;;;3.90;3.30;;;20.00;80.60;;;;;;10441459;28;20213;-28
2021/07/05 00:07:58;;;;;;;3.33;3.10;;;20.00;80.50;;;;;;10455152;28;20201;-28
2021/07/05 00:13:20;;;;;;;3.90;3.60;;;20.00;80.60;;;;;;10455993;28;20209;-27
2021/07/05 00:18:44;;;;;;;3.47;3.17;;;20.00;80.50;;;;;;10420535;28;20218;-28
2021/07/05 00:24:06;;;;;;;3.47;3.17;;;20.00;80.70;;;;;;10453417;28;20221;-30
2021/07/05 00:29:28;;;;;;;3.77;3.47;;;20.00;80.50;;;;;;10453987;28;20185;-29
2021/07/05 00:34:52;;;;;;;3.97;3.67;;;20.00;80.60;;;;;;10453126;28;20196;-31
2021/07/05 00:40:16;;;;;;;3.40;3.10;;;20.00;80.70;;;;;;10445003;28;20252;-28
2021/07/05 00:45:38;;;;;;;4.00;3.20;;;20.00;80.70;;;;;;10412375;28;20204;-28
2021/07/05 00:51:02;;;;;;;3.50;3.20;;;20.00;80.80;;;;;;10412324;28;20220;-27
2021/07/05 00:56:24;;;;;;;3.13;2.83;;;20.00;80.70;;;;;;10444272;28;20197;-29
2021/07/05 01:01:46;;;;;;;3.63;3.33;;;20.00;80.50;;;;;;10439653;28;20222;-29
2021/07/05 01:07:10;;;;;;;3.73;3.43;;;20.00;80.80;;;;;;10433274;28;20197;-31
2021/07/05 01:12:33;;;;;;;3.40;3.10;;;20.00;80.80;;;;;;10410885;28;20210;-27
2021/07/05 01:17:57;;;;;;;3.27;3.00;;;20.00;80.80;;;;;;10445170;28;20200;-31
2021/07/05 01:23:20;;;;;;;3.77;3.47;;;20.00;80.80;;;;;;10451606;28;20232;-28
2021/07/05 01:28:42;;;;;;;3.40;3.10;;;20.00;80.80;;;;;;10450589;28;20197;-27
2021/07/05 01:34:05;;;;;;;3.50;3.20;;;20.00;80.70;;;;;;10449864;28;20225;-27
2021/07/05 01:39:28;;;;;;;3.57;3.27;;;20.00;80.80;;;;;;10451303;28;20209;-27
2021/07/05 01:44:51;;;;;;;3.17;2.97;;;20.00;80.80;;;;;;10452649;28;20695;-29
2021/07/05 01:50:13;;;;;;;3.50;3.20;;;20.00;80.80;;;;;;10452480;28;20707;-25
2021/07/05 01:55:37;;;;;;;3.50;3.20;;;20.00;80.80;;;;;;10452275;28;20580;-28
2021/07/05 02:01:00;;;;;;;3.53;3.20;;;20.00;80.80;;;;;;10451078;28;20481;-28
2021/07/05 02:06:22;;;;;;;3.47;3.17;;;20.00;80.50;;;;;;10441929;28;20213;-30
2021/07/05 02:11:45;;;;;;;3.40;3.10;;;20.00;80.80;;;;;;10417390;28;20214;-32
2021/07/05 02:17:09;;;;;;;3.23;3.00;;;20.00;80.80;;;;;;10410424;28;20213;-28
2021/07/05 02:22:31;;;;;;;5.00;3.27;;;20.00;80.80;;;;;;10410986;28;20221;-29
2021/07/05 02:27:55;;;;;;;3.10;2.90;;;20.00;80.90;;;;;;10440004;28;20229;-26
2021/07/05 02:33:19;;;;;;;3.10;2.90;;;20.00;80.80;;;;;;10450294;28;20221;-29
2021/07/05 02:38:41;;;;;;;3.20;2.90;;;20.00;80.90;;;;;;10422646;28;20696;-27
2021/07/05 02:44:06;;;;;;;4.27;3.20;;;20.00;80.90;;;;;;10416433;28;20581;-28
2021/07/05 02:49:28;;;;;;;3.63;3.33;;;20.00;80.90;;;;;;10415626;28;20198;-28
2021/07/05 02:54:50;;;;;;;3.83;3.00;;;20.00;81.00;;;;;;10423807;28;20212;-26
2021/07/05 03:00:17;;;;;;;3.43;3.13;;;20.00;80.90;;;;;;10415020;28;20225;-28
2021/07/05 03:05:39;;;;;;;3.43;2.70;;;20.00;80.90;;;;;;10438720;28;20546;-28
2021/07/05 03:11:02;;;;;;;3.93;2.93;;;20.00;80.60;;;;;;10438892;28;20221;-29
2021/07/05 03:16:25;;;;;;;3.27;3.03;;;20.00;81.10;;;;;;10456803;28;20196;-26
2021/07/05 03:21:47;;;;;;;3.70;3.40;;;20.00;80.90;;;;;;10457815;28;20654;-27
2021/07/05 03:27:09;;;;;;;4.10;3.80;;;20.00;81.00;;;;;;10454062;28;20216;-32
2021/07/05 03:32:33;;;;;;;3.70;3.40;;;20.00;81.00;;;;;;10389015;22;20226;-27
2021/07/05 03:37:56;;;;;;;3.50;3.20;;;20.00;81.00;;;;;;10325809;28;20226;-25
2021/07/05 03:43:19;;;;;;;3.70;3.40;;;20.00;81.10;;;;;;10316322;28;20230;-26
2021/07/05 03:48:42;;;;;;;3.80;3.50;;;20.00;81.00;;;;;;10324571;28;20413;-26
2021/07/05 03:54:05;;;;;;;4.90;4.27;;;20.00;81.00;;;;;;10311863;28;20235;-26
2021/07/05 03:59:27;;;;;;;4.53;4.13;;;20.00;81.10;;;;;;10300617;28;20538;-27
2021/07/05 04:04:51;;;;;;;3.80;3.50;;;20.00;81.00;;;;;;10321846;28;20206;-27
2021/07/05 04:10:15;;;;;;;4.30;3.87;;;20.10;81.20;;;;;;10286050;28;20610;-27
2021/07/05 04:15:38;;;;;;;3.80;3.30;;;20.00;81.20;;;;;;10292466;28;20214;-27
2021/07/05 04:21:02;;;;;;;4.00;3.70;;;20.00;80.60;;;;;;10308170;28;20215;-26
2021/07/05 04:26:24;;;;;;;4.60;4.20;;;20.00;81.10;;;;;;10315247;28;20192;-29
2021/07/05 04:31:46;;;;;;;3.93;3.63;;;20.00;81.00;;;;;;10286297;28;20223;-27
2021/07/05 04:37:09;;;;;;;4.40;4.00;;;20.00;81.20;;;;;;10284154;28;20199;-26
2021/07/05 04:42:32;;;;;;;4.53;4.13;;;20.00;81.20;;;;;;10283731;28;20223;-26
2021/07/05 04:47:54;;;;;;;3.77;3.47;;;20.00;81.20;;;;;;10285507;28;20210;-26
2021/07/05 04:53:18;;;;;;;4.47;3.73;;;20.00;81.30;;;;;;10285125;28;20238;-26
2021/07/05 04:58:40;;;;;;;4.57;4.17;;;20.00;81.30;;;;;;10323435;28;20202;-25
2021/07/05 05:04:02;;;;;;;4.40;4.00;;;20.00;81.30;;;;;;10323859;28;20222;-26
2021/07/05 05:09:25;;;;;;;4.63;4.23;;;20.00;81.30;;;;;;10303472;28;20202;-26
2021/07/05 05:14:48;;;;;;;4.20;3.90;;;20.00;81.30;;;;;;10324846;28;20202;-26
2021/07/05 05:20:11;;;;;;;3.30;3.10;;;20.00;81.30;;;;;;10313507;28;20228;-27
2021/07/05 05:25:35;;;;;;;5.50;4.27;;;20.00;80.60;;;;;;10303110;28;20205;-31
2021/07/05 05:30:57;;;;;;;5.33;4.10;;;20.00;81.30;;;;;;10299683;28;20227;-24
2021/07/05 05:36:19;;;;;;;4.40;4.00;;;20.00;81.20;;;;;;10289425;28;20203;-26
2021/07/05 05:41:43;;;;;;;4.90;4.50;;;20.00;81.20;;;;;;10283252;28;20223;-27
2021/07/05 05:47:05;;;;;;;5.00;4.60;;;20.00;81.20;;;;;;10281589;28;20583;-28
2021/07/05 05:52:27;;;;;;;13.80;12.13;;;20.00;81.20;;;;;;10280895;28;20729;-26
2021/07/05 05:57:50;;;;;;;17.60;14.63;;;19.90;81.10;;;;;;10285831;28;20700;-27
2021/07/05 06:03:12;;;;;;;17.70;15.67;;;19.80;81.90;;;;;;10311275;28;20367;-27
2021/07/05 06:08:34;;;;;;;19.33;14.07;;;19.70;82.40;;;;;;10309372;28;20203;-27
2021/07/05 06:13:58;;;;;;;16.67;14.87;;;19.60;82.80;;;;;;10288485;28;20216;-27
2021/07/05 06:19:20;;;;;;;16.43;14.60;;;19.60;83.60;;;;;;10291425;28;20215;-26
2021/07/05 06:24:46;;;;;;;15.90;13.33;;;19.60;84.30;;;;;;10313291;28;20196;-26
2021/07/05 06:30:11;;;;;;;15.43;13.37;;;19.60;83.50;;;;;;10304035;28;20250;-25
2021/07/05 06:35:34;;;;;;;16.83;13.00;;;19.70;82.90;;;;;;10290920;28;20212;-26
2021/07/05 06:40:56;;;;;;;15.93;12.90;;;19.70;82.90;;;;;;10286725;28;20223;-24
2021/07/05 06:46:21;;;;;;;13.17;11.77;;;19.70;83.10;;;;;;10302941;28;20206;-27
2021/07/05 06:51:43;;;;;;;11.90;10.70;;;19.70;82.80;;;;;;10327967;28;20222;-27
2021/07/05 06:57:05;;;;;;;13.27;10.90;;;19.70;82.20;;;;;;10325769;28;20203;-27
2021/07/05 07:02:28;;;;;;;10.70;9.43;;;19.70;81.80;;;;;;10329972;28;20231;-30
2021/07/05 07:07:53;;;;;;;24.03;15.47;;;19.70;81.40;;;;;;10318443;28;20551;-27
2021/07/05 07:13:15;;;;;;;25.00;15.23;;;19.70;81.70;;;;;;10326963;28;20436;-26
2021/07/05 07:19:00;;;;;;;18.27;11.47;;;19.80;81.90;;;;;;10313673;28;20575;-27
2021/07/05 07:24:22;;;;;;;12.03;8.87;;;19.80;81.80;;;;;;10324547;28;20729;-27
2021/07/05 07:29:44;;;;;;;10.47;7.17;;;19.90;81.50;;;;;;10299455;28;20203;-26
2021/07/05 07:35:08;;;;;;;7.30;6.60;;;19.90;80.70;;;;;;10318408;28;20696;-26
2021/07/05 07:40:33;;;;;;;8.27;6.87;;;20.00;81.10;;;;;;10325385;28;20602;-25
2021/07/05 07:45:55;;;;;;;7.30;6.53;;;20.00;80.90;;;;;;10297473;28;20222;-25
2021/07/05 07:51:19;;;;;;;7.87;6.07;;;20.00;81.70;;;;;;10285846;28;20215;-25
2021/07/05 07:56:41;;;;;;;6.67;5.63;;;20.00;82.00;;;;;;10305951;28;20210;-25
2021/07/05 08:02:04;;;;;;;8.63;5.43;;;20.00;82.10;;;;;;10285310;28;20223;-26
2021/07/05 08:07:27;;;;;;;8.87;4.93;;;20.10;82.20;;;;;;10304959;28;20218;-26
2021/07/05 08:12:49;;;;;;;7.03;4.70;;;20.10;82.20;;;;;;10316976;28;20720;-30
2021/07/05 08:18:11;;;;;;;6.63;4.17;;;20.10;81.90;;;;;;10325411;28;20195;-25
2021/07/05 08:23:35;;;;;;;5.33;3.60;;;20.20;81.90;;;;;;10325616;28;20223;-26
2021/07/05 08:28:57;;;;;;;5.60;3.93;;;20.20;81.90;;;;;;10325770;28;20682;-25
2021/07/05 08:34:20;;;;;;;5.87;3.50;;;20.20;81.90;;;;;;10312168;28;20231;-25
2021/07/05 08:39:43;;;;;;;3.83;3.10;;;20.20;81.80;;;;;;10289690;28;20207;-27
2021/07/05 08:45:08;;;;;;;4.60;3.27;;;20.20;81.60;;;;;;10286566;28;20678;-27
2021/07/05 08:50:31;;;;;;;6.50;3.53;;;20.20;81.50;;;;;;10283972;28;20215;-25
2021/07/05 08:55:55;;;;;;;5.50;2.73;;;20.20;81.50;;;;;;10283999;28;20203;-27
2021/07/05 09:01:17;;;;;;;2.83;2.53;;;20.30;81.60;;;;;;10289262;28;20238;-26
2021/07/05 09:07:01;;;;;;;4.83;2.60;;;20.20;81.30;;;;;;10300620;28;20210;-26
2021/07/05 09:12:25;;;;;;;3.20;2.60;;;20.10;81.30;;;;;;10308591;28;20207;-27
2021/07/05 09:17:48;;;;;;;4.30;2.83;;;20.20;81.60;;;;;;10282701;28;20670;-27
2021/07/05 09:23:12;;;;;;;2.80;2.57;;;20.10;81.40;;;;;;10308581;28;20224;-26
2021/07/05 09:28:39;;;;;;;2.87;2.40;;;20.10;81.50;;;;;;10283371;28;20196;-27
2021/07/05 09:34:03;;;;;;;2.63;2.43;;;20.10;81.50;;;;;;10308895;23;20231;-35
2021/07/05 09:39:25;;;;;;;2.87;2.53;;;20.10;81.60;;;;;;10317347;28;20202;-30
2021/07/05 09:44:49;;;;;;;2.50;2.30;;;20.10;81.50;;;;;;10292901;28;20219;-29
2021/07/05 09:50:16;;;;;;;2.70;2.50;;;20.10;81.60;;;;;;10283582;28;20439;-29
2021/07/05 09:55:38;;;;;;;2.70;2.50;;;20.10;81.60;;;;;;10308651;28;20199;-32
2021/07/05 10:01:01;;;;;;;2.70;2.50;;;20.10;81.70;;;;;;10284863;28;20211;-29
2021/07/05 10:06:23;;;;;;;4.00;2.47;;;20.10;81.60;;;;;;10303649;28;20698;-29
2021/07/05 10:11:46;;;;;;;2.53;2.17;;;20.10;81.70;;;;;;10322568;28;20207;-29
2021/07/05 10:17:15;;;;;;;2.60;2.40;;;20.10;81.70;;;;;;10322021;28;20200;-28
2021/07/05 10:22:38;;;;;;;2.90;2.60;;;20.10;81.70;;;;;;10285352;28;20637;-31
2021/07/05 10:28:01;;;;;;;2.90;2.60;;;20.10;82.20;;;;;;10281141;28;20203;-28
2021/07/05 10:33:25;;;;;;;2.43;2.23;;;20.10;81.90;;;;;;10321352;28;20219;-28
2021/07/05 10:38:52;;;;;;;3.40;2.27;;;20.10;81.70;;;;;;10363895;28;20207;-28
2021/07/05 10:44:19;;;;;;;2.80;2.50;;;20.10;81.80;;;;;;10352535;28;20222;-28
2021/07/05 10:49:47;;;;;;;2.40;2.00;;;20.10;81.70;;;;;;10339958;28;20207;-27
2021/07/05 10:55:12;;;;;;;2.47;2.17;;;20.10;82.20;;;;;;10331689;28;20201;-28
2021/07/05 11:00:42;;;;;;;2.47;2.27;;;20.10;82.10;;;;;;10356493;28;20218;-30
2021/07/05 11:06:08;;;;;;;2.53;2.33;;;20.10;81.70;;;;;;10349768;28;20195;-29
2021/07/05 11:11:32;;;;;;;2.27;2.03;;;20.10;81.70;;;;;;10358591;28;20293;-28
2021/07/05 11:17:07;;;;;;;2.83;2.60;;;20.10;81.80;;;;;;10369640;28;20681;-29
2021/07/05 11:22:33;;;;;;;2.27;1.83;;;20.10;81.70;;;;;;10344360;28;20224;-28
2021/07/05 11:27:58;;;;;;;2.40;2.20;;;20.10;81.80;;;;;;10328814;28;20662;-27
2021/07/05 11:33:26;;;;;;;3.70;2.20;;;20.10;81.90;;;;;;10327917;28;20259;-27
2021/07/05 11:39:01;;;;;;;2.40;2.20;;;20.10;82.00;;;;;;10361134;28;20194;-27
2021/07/05 11:44:46;;;;;;;3.20;2.27;;;20.20;82.60;;;;;;10329242;28;20257;-31
2021/07/05 11:50:31;;;;;;;2.00;1.87;;;20.10;81.90;;;;;;10348070;28;20203;-28
2021/07/05 11:55:55;;;;;;;2.20;2.00;;;20.10;82.10;;;;;;10372262;28;20353;-29
2021/07/05 12:01:17;;;;;;;1.93;1.77;;;20.10;82.20;;;;;;10336193;28;20219;-31
2021/07/05 12:06:47;;;;;;;2.10;1.90;;;20.10;82.10;;;;;;10339557;28;20213;-30
2021/07/05 12:12:15;;;;;;;2.00;1.90;;;20.20;82.70;;;;;;10325175;28;20218;-27
2021/07/05 12:17:37;;;;;;;1.97;1.80;;;20.20;82.20;;;;;;10324699;28;20213;-29
2021/07/05 12:23:08;;;;;;;2.17;1.97;;;20.20;82.30;;;;;;10352285;28;20230;-29
2021/07/05 12:28:31;;;;;;;2.60;1.90;;;20.20;82.30;;;;;;10335191;28;20229;-29
2021/07/05 12:33:54;;;;;;;2.27;1.87;;;20.20;82.40;;;;;;10329760;28;20218;-29
2021/07/05 12:39:16;;;;;;;2.27;1.90;;;20.20;82.20;;;;;;10356596;28;20202;-27
2021/07/05 12:44:39;;;;;;;2.77;2.17;;;20.10;82.20;;;;;;10350881;28;20241;-28
2021/07/05 12:50:04;;;;;;;2.20;2.00;;;20.20;82.20;;;;;;10363209;28;20693;-27
2021/07/05 12:55:26;;;;;;;1.83;1.70;;;20.20;82.40;;;;;;10365054;28;20346;-28
2021/07/05 13:00:50;;;;;;;2.43;1.97;;;20.20;82.30;;;;;;10326228;28;20632;-28
2021/07/05 13:06:12;;;;;;;1.97;1.87;;;20.20;82.30;;;;;;10339896;28;20200;-30
2021/07/05 13:11:36;;;;;;;1.80;1.70;;;20.20;82.20;;;;;;10363264;28;20697;-31
2021/07/05 13:17:08;;;;;;;3.07;2.03;;;20.20;82.20;;;;;;10353507;28;20601;-27
2021/07/05 13:22:30;;;;;;;2.17;1.73;;;20.20;82.40;;;;;;10363918;28;20729;-27
2021/07/05 13:27:53;;;;;;;1.73;1.63;;;20.20;82.40;;;;;;10330530;28;20214;-27
2021/07/05 13:33:19;;;;;;;2.10;1.80;;;20.10;82.30;;;;;;10333566;28;20226;-28
2021/07/05 13:38:43;;;;;;;1.80;1.70;;;20.20;82.40;;;;;;10364832;28;20275;-29
2021/07/05 13:44:06;;;;;;;1.87;1.77;;;20.20;82.50;;;;;;10333325;28;20594;-28
2021/07/05 13:49:29;;;;;;;2.27;2.03;;;20.20;82.40;;;;;;10359976;28;20201;-28
2021/07/05 13:54:51;;;;;;;3.07;1.60;;;20.20;82.40;;;;;;10355146;28;20194;-31
2021/07/05 14:00:14;;;;;;;2.17;1.80;;;20.20;82.40;;;;;;10329685;28;20593;-29
2021/07/05 14:05:38;;;;;;;1.80;1.70;;;20.20;82.60;;;;;;10337627;28;20704;-28
2021/07/05 14:11:02;;;;;;;1.90;1.80;;;20.20;82.50;;;;;;10362580;28;20222;-28
2021/07/05 14:16:25;;;;;;;1.63;1.53;;;20.20;82.60;;;;;;10362016;28;20650;-31
2021/07/05 14:21:49;;;;;;;1.70;1.60;;;20.20;82.90;;;;;;10355941;28;20219;-27
2021/07/05 14:27:11;;;;;;;3.03;2.00;;;20.20;82.60;;;;;;10326780;28;20201;-29
2021/07/05 14:32:33;;;;;;;1.57;1.47;;;20.20;82.60;;;;;;10356544;28;20238;-31
2021/07/05 14:37:56;;;;;;;2.60;1.40;;;20.20;82.60;;;;;;10367520;28;20586;-28
2021/07/05 14:43:19;;;;;;;1.77;1.67;;;20.20;82.60;;;;;;10368484;28;20597;-28
2021/07/05 14:48:41;;;;;;;1.70;1.60;;;20.20;82.80;;;;;;10365550;28;20578;-28
2021/07/05 14:54:04;;;;;;;1.60;1.50;;;20.20;83.00;;;;;;10334418;28;20211;-30
2021/07/05 14:59:26;;;;;;;1.70;1.60;;;20.20;82.60;;;;;;10324062;28;20203;-29
2021/07/05 15:04:48;;;;;;;1.80;1.70;;;20.20;82.60;;;;;;10334248;28;20257;-28
2021/07/05 15:10:16;;;;;;;2.27;1.90;;;20.20;82.80;;;;;;10367252;28;20202;-29
2021/07/05 15:15:38;;;;;;;2.30;1.57;;;20.20;82.80;;;;;;10329994;28;20566;-28
2021/07/05 15:21:00;;;;;;;1.67;1.57;;;20.20;82.70;;;;;;10351394;28;20249;-30
2021/07/05 15:26:24;;;;;;;1.50;1.40;;;20.20;82.80;;;;;;10367125;28;20542;-29
2021/07/05 15:31:46;;;;;;;1.93;1.67;;;20.20;82.70;;;;;;10378581;22;20322;-24
2021/07/05 15:37:08;;;;;;;1.83;1.67;;;20.20;82.60;;;;;;10454574;28;20572;-26
2021/07/05 15:42:31;;;;;;;1.50;1.40;;;20.20;82.70;;;;;;10436607;28;20232;-25
2021/07/05 15:47:53;;;;;;;1.70;1.60;;;20.20;82.70;;;;;;10434465;28;20189;-23
2021/07/05 15:53:16;;;;;;;1.60;1.50;;;20.20;82.70;;;;;;10446627;28;20237;-23
2021/07/05 15:58:40;;;;;;;1.73;1.53;;;20.20;82.70;;;;;;10448093;28;20220;-24
2021/07/05 16:04:03;;;;;;;1.50;1.40;;;20.20;82.70;;;;;;10439821;28;20308;-23
2021/07/05 16:09:25;;;;;;;1.67;1.57;;;20.20;82.70;;;;;;10412852;28;20692;-23
2021/07/05 16:14:48;;;;;;;1.53;1.43;;;20.20;82.50;;;;;;10413421;28;20214;-23
2021/07/05 16:20:12;;;;;;;1.50;1.40;;;20.20;82.70;;;;;;10420419;28;20200;-22
2021/07/05 16:25:34;;;;;;;1.60;1.50;;;20.10;82.80;;;;;;10454201;28;20221;-24
2021/07/05 16:30:57;;;;;;;1.53;1.43;;;20.20;82.70;;;;;;10453394;28;20198;-23
2021/07/05 16:36:19;;;;;;;1.40;1.30;;;20.20;82.80;;;;;;10451432;28;20182;-22
2021/07/05 16:41:41;;;;;;;1.57;1.47;;;20.20;82.70;;;;;;10437563;28;20221;-22
2021/07/05 16:47:05;;;;;;;1.60;1.50;;;20.10;82.70;;;;;;10421480;28;20205;-22
2021/07/05 16:52:30;;;;;;;1.70;1.60;;;20.20;82.80;;;;;;10412793;28;20221;-23
2021/07/05 16:57:54;;;;;;;1.47;1.37;;;20.10;82.70;;;;;;10413003;28;20580;-23
2021/07/05 17:03:18;;;;;;;1.57;1.47;;;20.10;82.90;;;;;;10410701;28;20295;-23
2021/07/05 17:08:41;;;;;;;1.50;1.40;;;20.10;82.90;;;;;;10410611;28;20201;-23
2021/07/05 17:14:04;;;;;;;1.43;1.33;;;20.10;82.80;;;;;;10410440;28;20249;-23
2021/07/05 17:19:28;;;;;;;1.00;1.00;;;20.20;82.80;;;;;;10412472;28;20215;-25
2021/07/05 17:24:50;;;;;;;1.30;1.20;;;20.10;82.70;;;;;;10421631;28;20612;-22
2021/07/05 17:30:13;;;;;;;1.63;1.40;;;20.20;83.00;;;;;;10411625;28;20256;-23
2021/07/05 17:35:37;;;;;;;1.50;1.40;;;20.20;82.90;;;;;;10410828;28;20309;-24
2021/07/05 17:40:59;;;;;;;1.40;1.30;;;20.10;82.90;;;;;;10410446;28;20217;-22
2021/07/05 17:46:21;;;;;;;1.63;1.40;;;20.10;82.90;;;;;;10410227;28;20213;-23
2021/07/05 17:51:45;;;;;;;1.60;1.40;;;20.20;83.00;;;;;;10410945;28;20213;-23
2021/07/05 17:57:07;;;;;;;1.30;1.20;;;20.20;83.00;;;;;;10415044;28;20197;-24
2021/07/05 18:02:29;;;;;;;1.30;1.20;;;20.10;82.90;;;;;;10419078;28;20236;-23
2021/07/05 18:07:58;;;;;;;1.50;1.40;;;20.20;82.90;;;;;;10419451;28;20201;-25
2021/07/05 18:13:20;;;;;;;1.50;1.40;;;20.10;83.40;;;;;;10418504;28;20285;-23
2021/07/05 18:18:44;;;;;;;1.17;1.10;;;20.20;82.90;;;;;;10418878;28;20204;-25
2021/07/05 18:24:08;;;;;;;1.27;1.17;;;20.20;82.80;;;;;;10453561;28;20244;-22
2021/07/05 18:29:30;;;;;;;1.30;1.20;;;20.10;82.80;;;;;;10457322;28;20208;-22
2021/07/05 18:34:52;;;;;;;1.30;1.20;;;20.20;83.00;;;;;;10457299;28;20217;-23
2021/07/05 18:40:18;;;;;;;2.00;1.20;;;20.20;83.30;;;;;;10455058;28;20201;-23
2021/07/05 18:45:51;;;;;;;1.20;1.10;;;20.20;82.50;;;;;;10448954;28;20224;-22
2021/07/05 18:51:13;;;;;;;1.40;1.30;;;20.20;82.90;;;;;;10414420;28;20712;-23
2021/07/05 18:56:37;;;;;;;1.40;1.30;;;20.10;82.90;;;;;;10412545;28;20201;-24
2021/07/05 19:02:04;;;;;;;2.90;1.20;;;20.10;82.70;;;;;;10410720;28;20218;-21
2021/07/05 19:07:26;;;;;;;1.20;1.10;;;20.10;82.80;;;;;;10446724;28;20753;-23
2021/07/05 19:12:50;;;;;;;1.33;1.20;;;20.20;82.70;;;;;;10453328;28;20677;-22
2021/07/05 19:18:12;;;;;;;1.57;1.20;;;20.20;82.70;;;;;;10454358;28;20680;-24
2021/07/05 19:23:34;;;;;;;1.43;1.10;;;20.10;82.50;;;;;;10453073;28;20637;-23
2021/07/05 19:28:58;;;;;;;1.00;1.00;;;20.10;82.60;;;;;;10444542;28;20669;-22
2021/07/05 19:34:20;;;;;;;1.53;1.10;;;20.20;82.60;;;;;;10435443;28;20217;-22
2021/07/05 19:39:42;;;;;;;1.13;1.03;;;20.20;82.70;;;;;;10434692;28;20190;-22
2021/07/05 19:45:07;;;;;;;0.97;0.90;;;20.10;82.60;;;;;;10433348;28;20217;-24
2021/07/05 19:50:31;;;;;;;1.37;1.27;;;20.10;82.60;;;;;;10435939;28;20202;-24
2021/07/05 19:55:57;;;;;;;1.30;1.20;;;20.10;82.60;;;;;;10435264;28;20208;-23
2021/07/05 20:01:20;;;;;;;1.47;1.37;;;20.10;82.60;;;;;;10434974;28;20223;-22
2021/07/05 20:06:42;;;;;;;0.90;0.90;;;20.10;82.50;;;;;;10432900;28;20228;-25
2021/07/05 20:12:05;;;;;;;1.07;1.00;;;20.10;82.60;;;;;;10437540;28;20592;-24
2021/07/05 20:17:28;;;;;;;1.50;1.10;;;20.10;82.60;;;;;;10455124;28;20703;-23
2021/07/05 20:22:50;;;;;;;1.00;0.90;;;20.10;82.50;;;;;;10441867;28;20224;-23
2021/07/05 20:28:13;;;;;;;1.13;1.07;;;20.10;82.50;;;;;;10454614;28;20553;-23
2021/07/05 20:33:39;;;;;;;1.60;0.90;;;20.10;82.50;;;;;;10454299;28;20293;-23
2021/07/05 20:39:01;;;;;;;1.20;1.10;;;20.10;82.50;;;;;;10454480;28;20207;-23
2021/07/05 20:44:23;;;;;;;0.90;0.90;;;20.10;82.50;;;;;;10453911;28;20363;-23
2021/07/05 20:49:47;;;;;;;1.20;1.10;;;20.10;82.50;;;;;;10454079;28;20224;-23
2021/07/05 20:55:10;;;;;;;1.10;1.03;;;20.10;82.60;;;;;;10438902;28;20205;-23
2021/07/05 21:00:32;;;;;;;0.80;0.80;;;20.10;82.50;;;;;;10416536;28;20193;-23
2021/07/05 21:05:56;;;;;;;0.90;0.90;;;20.10;82.50;;;;;;10424848;28;20296;-22
2021/07/05 21:11:18;;;;;;;1.10;1.00;;;20.10;82.40;;;;;;10444641;28;20224;-23
2021/07/05 21:16:40;;;;;;;0.80;0.80;;;20.10;82.40;;;;;;10453561;28;20561;-23
2021/07/05 21:22:05;;;;;;;1.33;1.10;;;20.10;82.40;;;;;;10432647;28;20589;-23
2021/07/05 21:27:27;;;;;;;0.97;0.97;;;20.10;82.30;;;;;;10411696;28;20251;-22
2021/07/05 21:32:49;;;;;;;1.27;1.00;;;20.10;82.30;;;;;;10419141;28;20221;-22
2021/07/05 21:38:13;;;;;;;1.23;1.13;;;20.10;82.30;;;;;;10411950;28;20198;-23
2021/07/05 21:43:36;;;;;;;1.20;1.10;;;20.10;82.20;;;;;;10409803;28;20210;-24
2021/07/05 21:48:58;;;;;;;1.10;1.10;;;20.10;82.30;;;;;;10435038;22;20232;-27
2021/07/05 21:54:21;;;;;;;0.90;0.90;;;20.10;82.20;;;;;;10449467;28;20193;-27
2021/07/05 21:59:43;;;;;;;1.20;1.10;;;20.10;82.20;;;;;;10419370;28;20217;-29
2021/07/05 22:05:07;;;;;;;0.97;0.77;;;20.10;82.20;;;;;;10399675;28;20217;-29
2021/07/05 22:10:30;;;;;;;1.30;1.20;;;20.10;82.20;;;;;;10409284;28;20222;-28
2021/07/05 22:15:52;;;;;;;0.90;0.90;;;20.10;82.20;;;;;;10410808;28;20699;-27
2021/07/05 22:21:15;;;;;;;1.33;0.73;;;20.10;82.20;;;;;;10400223;28;20696;-27
2021/07/05 22:26:38;;;;;;;0.97;0.97;;;20.10;82.20;;;;;;10440361;28;20292;-27
2021/07/05 22:32:00;;;;;;;1.00;0.90;;;20.10;82.20;;;;;;10450247;28;20197;-27
2021/07/05 22:37:22;;;;;;;0.90;0.90;;;20.10;82.20;;;;;;10440117;28;20225;-27
2021/07/05 22:42:48;;;;;;;0.70;0.70;;;20.10;82.20;;;;;;10420478;28;20216;-27
2021/07/05 22:48:10;;;;;;;1.00;0.80;;;20.10;82.20;;;;;;10409164;28;20600;-29
2021/07/05 22:53:32;;;;;;;1.13;1.03;;;20.10;82.20;;;;;;10380355;28;20768;-28
2021/07/05 22:58:55;;;;;;;0.97;0.87;;;20.10;82.20;;;;;;10417513;28;20704;-30
2021/07/05 23:04:17;;;;;;;0.93;0.93;;;20.10;82.20;;;;;;10416271;28;20577;-27
2021/07/05 23:09:39;;;;;;;1.57;1.00;;;20.10;82.20;;;;;;10416203;28;20225;-28
2021/07/05 23:15:04;;;;;;;0.90;0.77;;;20.10;82.20;;;;;;10415758;28;20205;-27
2021/07/05 23:20:28;;;;;;;0.90;0.90;;;20.10;82.20;;;;;;10446216;28;20681;-32
2021/07/05 23:25:51;;;;;;;1.00;0.90;;;20.10;82.20;;;;;;10401218;28;20225;-28
2021/07/05 23:31:14;;;;;;;0.90;0.90;;;20.10;82.20;;;;;;10414967;28;20201;-28
2021/07/05 23:36:36;;;;;;;0.80;0.80;;;20.10;82.20;;;;;;10425798;28;20205;-30
2021/07/05 23:41:59;;;;;;;0.93;0.90;;;20.10;82.20;;;;;;10374897;28;20197;-28
2021/07/05 23:47:22;;;;;;;0.90;0.90;;;20.10;82.20;;;;;;10414381;28;20593;-30
2021/07/05 23:52:46;;;;;;;0.80;0.80;;;20.10;82.30;;;;;;10415366;28;20208;-27
2021/07/05 23:58:08;;;;;;;0.90;0.90;;;20.10;82.20;;;;;;10455096;28;20232;-29
